Time;durP1;ratioP1;P1;durP2;ratioP2;P2;SDS_P1;SDS_P2;PMS_P1;PMS_P2;Temp;Humidity;BMP_temperature;BMP_pressure;BME280_temperature;BME280_humidity;BME280_pressure;Samples;Min_cycle;Max_cycle;Signal;HPM_P1;HPM_P2
2024/02/22 00:01:51;;;;;;;;;;;22.50;36.30;;;;;;5073431;28;19978;-57
2024/02/22 00:04:18;;;;;;;;;;;22.40;36.20;;;;;;5073145;28;20374;-56
2024/02/22 00:06:45;;;;;;;;;;;22.40;36.20;;;;;;5073440;28;19925;-57
2024/02/22 00:09:12;;;;;;;;;;;22.40;36.20;;;;;;5073486;28;19929;-57
2024/02/22 00:11:40;;;;;;;;;;;22.40;36.20;;;;;;5073092;28;20386;-57
2024/02/22 00:14:07;;;;;;;;;;;22.40;36.30;;;;;;5073072;28;20298;-57
2024/02/22 00:16:34;;;;;;;;;;;22.40;36.30;;;;;;5073582;28;20011;-57
2024/02/22 00:19:01;;;;;;;;;;;22.40;36.30;;;;;;5072844;28;20006;-57
2024/02/22 00:21:28;;;;;;;;;;;22.30;36.30;;;;;;5073378;28;19932;-56
2024/02/22 00:23:55;;;;;;;;;;;22.30;36.30;;;;;;5073010;28;20445;-56
2024/02/22 00:26:22;;;;;;;;;;;22.30;36.30;;;;;;5073192;28;19931;-56
2024/02/22 00:28:49;;;;;;;;;;;22.30;36.30;;;;;;5072287;28;20361;-56
2024/02/22 00:31:16;;;;;;;;;;;22.30;36.30;;;;;;5073371;28;20255;-57
2024/02/22 00:33:45;;;;;;;;;;;22.30;36.40;;;;;;5072661;28;20015;-56
2024/02/22 00:36:13;;;;;;;;;;;22.30;36.90;;;;;;5072922;28;20389;-56
2024/02/22 00:38:40;;;;;;;;;;;22.30;36.40;;;;;;5072941;28;19970;-57
2024/02/22 00:41:07;;;;;;;;;;;22.30;36.30;;;;;;5072637;28;19928;-56
2024/02/22 00:43:33;;;;;;;;;;;22.30;36.30;;;;;;5072732;28;19996;-56
2024/02/22 00:46:00;;;;;;;;;;;22.30;36.30;;;;;;5072634;28;19983;-56
2024/02/22 00:48:27;;;;;;;;;;;22.30;36.30;;;;;;5072804;28;19979;-57
2024/02/22 00:50:55;;;;;;;;;;;22.30;36.30;;;;;;5072720;28;19981;-56
2024/02/22 00:53:22;;;;;;;;;;;22.30;36.30;;;;;;5072706;28;19924;-57
2024/02/22 00:55:49;;;;;;;;;;;22.30;36.20;;;;;;5072627;28;19924;-57
2024/02/22 00:58:16;;;;;;;;;;;22.30;36.20;;;;;;5071516;28;19931;-56
2024/02/22 01:00:44;;;;;;;;;;;22.30;36.20;;;;;;5072548;28;19931;-57
2024/02/22 01:03:11;;;;;;;;;;;22.30;36.20;;;;;;5072795;28;20031;-56
2024/02/22 01:05:37;;;;;;;;;;;22.30;36.20;;;;;;5073251;28;20007;-56
2024/02/22 01:08:05;;;;;;;;;;;22.30;36.20;;;;;;5072705;28;20300;-56
2024/02/22 01:10:32;;;;;;;;;;;22.30;36.20;;;;;;5072558;28;19924;-56
2024/02/22 01:12:59;;;;;;;;;;;22.30;36.20;;;;;;5072709;28;20328;-57
2024/02/22 01:15:26;;;;;;;;;;;22.30;36.20;;;;;;5072531;28;20292;-57
2024/02/22 01:17:53;;;;;;;;;;;22.30;36.20;;;;;;5072445;28;19925;-56
2024/02/22 01:20:20;;;;;;;;;;;22.30;36.30;;;;;;5072194;28;20305;-56
2024/02/22 01:22:47;;;;;;;;;;;22.30;36.30;;;;;;5072425;28;19931;-56
2024/02/22 01:25:13;;;;;;;;;;;22.20;36.20;;;;;;5072623;28;19943;-56
2024/02/22 01:27:40;;;;;;;;;;;22.20;36.30;;;;;;5072723;28;19991;-57
2024/02/22 01:30:07;;;;;;;;;;;22.20;36.30;;;;;;5072326;28;20370;-56
2024/02/22 01:32:34;;;;;;;;;;;22.20;36.30;;;;;;5072546;28;19946;-57
2024/02/22 01:35:06;;;;;;;;;;;22.20;36.30;;;;;;5072208;28;19996;-57
2024/02/22 01:37:32;;;;;;;;;;;22.20;36.30;;;;;;5072681;28;20031;-57
2024/02/22 01:39:59;;;;;;;;;;;22.10;36.80;;;;;;5072409;28;20006;-56
2024/02/22 01:42:26;;;;;;;;;;;22.20;36.30;;;;;;5072529;28;19932;-56
2024/02/22 01:44:53;;;;;;;;;;;22.20;36.30;;;;;;5072186;28;19924;-57
2024/02/22 01:47:20;;;;;;;;;;;22.20;36.30;;;;;;5072098;28;19928;-57
2024/02/22 01:49:48;;;;;;;;;;;22.20;36.40;;;;;;5072160;28;19925;-57
2024/02/22 01:52:15;;;;;;;;;;;22.20;36.30;;;;;;5074208;28;20385;-59
2024/02/22 01:54:41;;;;;;;;;;;22.20;36.30;;;;;;5075730;28;19978;-57
2024/02/22 01:57:09;;;;;;;;;;;22.20;36.30;;;;;;5075981;28;19947;-57
2024/02/22 01:59:36;;;;;;;;;;;22.20;36.30;;;;;;5075938;28;19928;-57
2024/02/22 02:02:04;;;;;;;;;;;22.20;36.20;;;;;;5075758;28;20003;-58
2024/02/22 02:04:31;;;;;;;;;;;22.20;36.20;;;;;;5075769;28;20027;-58
2024/02/22 02:06:59;;;;;;;;;;;22.20;36.20;;;;;;5075795;28;19925;-56
2024/02/22 02:09:26;;;;;;;;;;;22.20;36.20;;;;;;5075453;28;19928;-57
2024/02/22 02:11:53;;;;;;;;;;;22.20;36.20;;;;;;5075290;28;20382;-56
2024/02/22 02:14:20;;;;;;;;;;;22.20;36.20;;;;;;5075326;28;19924;-57
2024/02/22 02:16:47;;;;;;;;;;;22.20;36.20;;;;;;5075535;28;20016;-56
2024/02/22 02:19:16;;;;;;;;;;;22.20;36.20;;;;;;5075522;28;19932;-56
2024/02/22 02:22:07;;;;;;;;;;;22.20;36.20;;;;;;5074843;28;20004;-57
2024/02/22 02:24:40;;;;;;;;;;;22.10;36.10;;;;;;5074470;28;20023;-58
2024/02/22 02:27:07;;;;;;;;;;;22.10;36.20;;;;;;5075445;28;19924;-57
2024/02/22 02:29:34;;;;;;;;;;;22.10;36.10;;;;;;5075002;28;19932;-56
2024/02/22 02:32:01;;;;;;;;;;;22.10;36.20;;;;;;5075127;28;20005;-57
2024/02/22 02:34:28;;;;;;;;;;;22.10;36.20;;;;;;5074859;28;20370;-56
2024/02/22 02:36:55;;;;;;;;;;;22.10;36.20;;;;;;5074614;28;19936;-58
2024/02/22 02:39:22;;;;;;;;;;;22.10;36.20;;;;;;5074887;28;19928;-57
2024/02/22 02:41:49;;;;;;;;;;;22.10;36.20;;;;;;5074807;28;19928;-56
2024/02/22 02:44:16;;;;;;;;;;;22.10;36.20;;;;;;5074859;28;19928;-56
2024/02/22 02:46:43;;;;;;;;;;;22.10;36.20;;;;;;5074801;28;19924;-57
2024/02/22 02:49:10;;;;;;;;;;;22.10;36.30;;;;;;5074694;28;19932;-55
2024/02/22 02:51:37;;;;;;;;;;;22.10;36.20;;;;;;5074544;28;20370;-56
2024/02/22 02:54:04;;;;;;;;;;;22.10;36.20;;;;;;5074660;28;19993;-56
2024/02/22 02:56:32;;;;;;;;;;;22.10;36.30;;;;;;5074942;28;19978;-56
2024/02/22 02:58:59;;;;;;;;;;;22.10;36.30;;;;;;5074199;28;19924;-57
2024/02/22 03:01:26;;;;;;;;;;;22.10;36.30;;;;;;5074921;28;20007;-56
2024/02/22 03:03:53;;;;;;;;;;;22.10;36.20;;;;;;5073949;28;19936;-56
2024/02/22 03:06:20;;;;;;;;;;;22.10;36.20;;;;;;5074761;28;20353;-55
2024/02/22 03:08:48;;;;;;;;;;;22.10;36.20;;;;;;5074034;28;20020;-57
2024/02/22 03:11:14;;;;;;;;;;;22.10;36.10;;;;;;5074612;28;19950;-54
2024/02/22 03:13:41;;;;;;;;;;;22.10;36.20;;;;;;5074318;28;20019;-56
2024/02/22 03:16:11;;;;;;;;;;;22.10;36.10;;;;;;5074120;28;19932;-56
2024/02/22 03:18:38;;;;;;;;;;;22.10;36.10;;;;;;5074034;28;19925;-57
2024/02/22 03:21:08;;;;;;;;;;;22.10;36.10;;;;;;5074315;28;19924;-55
2024/02/22 03:23:35;;;;;;;;;;;22.10;36.10;;;;;;5074362;28;19986;-57
2024/02/22 03:26:03;;;;;;;;;;;22.10;36.10;;;;;;5074335;28;20002;-56
2024/02/22 03:28:30;;;;;;;;;;;22.10;36.10;;;;;;5074000;28;20293;-57
2024/02/22 03:30:59;;;;;;;;;;;22.10;36.10;;;;;;5073745;28;19982;-56
2024/02/22 03:33:27;;;;;;;;;;;22.10;36.10;;;;;;5073690;28;19978;-57
2024/02/22 03:35:57;;;;;;;;;;;22.10;36.10;;;;;;5073773;28;19924;-54
2024/02/22 03:38:24;;;;;;;;;;;22.10;36.10;;;;;;5073678;28;20023;-55
2024/02/22 03:40:51;;;;;;;;;;;22.10;36.10;;;;;;5073592;28;19929;-57
2024/02/22 03:43:18;;;;;;;;;;;22.10;36.10;;;;;;5073837;28;19935;-56
2024/02/22 03:45:45;;;;;;;;;;;22.10;36.10;;;;;;5074069;28;19997;-57
2024/02/22 03:48:12;;;;;;;;;;;22.10;36.20;;;;;;5073276;28;20293;-56
2024/02/22 03:50:39;;;;;;;;;;;22.10;36.10;;;;;;5073720;28;19929;-57
2024/02/22 03:53:07;;;;;;;;;;;22.10;36.20;;;;;;5073707;28;19963;-56
2024/02/22 03:55:34;;;;;;;;;;;22.10;36.20;;;;;;5073173;28;19932;-57
2024/02/22 03:58:01;;;;;;;;;;;22.10;36.20;;;;;;5073731;28;20015;-57
2024/02/22 04:00:28;;;;;;;;;;;22.10;36.20;;;;;;5073718;28;19968;-57
2024/02/22 04:02:55;;;;;;;;;;;22.10;36.20;;;;;;5072998;28;19928;-57
2024/02/22 04:05:22;;;;;;;;;;;22.10;36.20;;;;;;5072383;28;19970;-57
2024/02/22 04:07:49;;;;;;;;;;;22.10;36.20;;;;;;5073329;28;20294;-57
2024/02/22 04:10:16;;;;;;;;;;;22.10;36.20;;;;;;5073430;28;20374;-56
2024/02/22 04:12:43;;;;;;;;;;;22.10;36.20;;;;;;5073271;28;19983;-55
2024/02/22 04:15:10;;;;;;;;;;;22.10;36.10;;;;;;5072389;28;20023;-56
2024/02/22 04:17:37;;;;;;;;;;;22.10;36.10;;;;;;5073295;28;19959;-54
2024/02/22 04:20:05;;;;;;;;;;;22.10;36.10;;;;;;5073210;28;20309;-57
2024/02/22 04:22:43;;;;;;;;;;;22.10;36.00;;;;;;5073255;28;20016;-56
2024/02/22 04:25:10;;;;;;;;;;;22.10;36.00;;;;;;5073254;28;19932;-56
2024/02/22 04:27:37;;;;;;;;;;;22.10;36.10;;;;;;5072750;28;19979;-56
2024/02/22 04:30:04;;;;;;;;;;;22.10;36.00;;;;;;5073074;28;20487;-56
2024/02/22 04:32:31;;;;;;;;;;;22.10;36.00;;;;;;5072673;28;19964;-57
2024/02/22 04:34:58;;;;;;;;;;;22.10;36.00;;;;;;5072844;28;20411;-57
2024/02/22 04:37:26;;;;;;;;;;;22.10;36.00;;;;;;5072858;28;19925;-57
2024/02/22 04:39:52;;;;;;;;;;;22.10;36.00;;;;;;5073151;28;19928;-55
2024/02/22 04:42:19;;;;;;;;;;;22.10;35.80;;;;;;5073164;28;20369;-56
2024/02/22 04:44:46;;;;;;;;;;;22.10;35.60;;;;;;5071679;28;20377;-56
2024/02/22 04:47:13;;;;;;;;;;;22.10;35.30;;;;;;5072243;28;19925;-56
2024/02/22 04:49:41;;;;;;;;;;;22.10;35.20;;;;;;5071426;28;19931;-56
2024/02/22 04:52:08;;;;;;;;;;;22.20;35.10;;;;;;5072934;28;19964;-57
2024/02/22 04:54:34;;;;;;;;;;;22.20;35.00;;;;;;5072358;28;19968;-56
2024/02/22 04:57:11;;;;;;;;;;;22.20;34.70;;;;;;5072284;28;19928;-57
2024/02/22 04:59:38;;;;;;;;;;;22.20;34.50;;;;;;5072923;28;19925;-55
2024/02/22 05:02:05;;;;;;;;;;;22.10;34.40;;;;;;5072803;28;20018;-55
2024/02/22 05:04:32;;;;;;;;;;;22.20;34.50;;;;;;5072648;28;19963;-55
2024/02/22 05:06:59;;;;;;;;;;;22.20;34.40;;;;;;5069319;28;19931;-56
2024/02/22 05:09:26;;;;;;;;;;;22.20;34.30;;;;;;5061507;28;19925;-56
2024/02/22 05:11:53;;;;;;;;;;;22.20;34.30;;;;;;5052435;28;19935;-55
2024/02/22 05:14:20;;;;;;;;;;;22.10;34.20;;;;;;5052179;28;20348;-54
2024/02/22 05:16:46;;;;;;;;;;;22.10;34.10;;;;;;5052157;28;19932;-56
2024/02/22 05:19:13;;;;;;;;;;;22.10;34.10;;;;;;5052487;28;19933;-55
2024/02/22 05:21:40;;;;;;;;;;;22.10;34.10;;;;;;5052414;28;19947;-54
2024/02/22 05:24:11;;;;;;;;;;;22.10;34.00;;;;;;5052529;28;19975;-55
2024/02/22 05:26:37;;;;;;;;;;;22.10;33.90;;;;;;5090158;28;20092;-56
2024/02/22 05:29:05;;;;;;;;;;;22.10;33.80;;;;;;5075631;28;19925;-56
2024/02/22 05:31:32;;;;;;;;;;;22.10;33.80;;;;;;5076587;28;19924;-54
2024/02/22 05:33:59;;;;;;;;;;;22.20;33.70;;;;;;5076088;28;19955;-56
2024/02/22 05:36:26;;;;;;;;;;;22.20;33.70;;;;;;5076182;28;19925;-57
2024/02/22 05:38:53;;;;;;;;;;;22.20;33.60;;;;;;5075574;28;19939;-57
2024/02/22 05:41:20;;;;;;;;;;;22.20;33.50;;;;;;5076222;28;19968;-57
2024/02/22 05:43:47;;;;;;;;;;;22.20;33.50;;;;;;5073871;28;20007;-57
2024/02/22 05:46:14;;;;;;;;;;;22.20;33.50;;;;;;5075415;28;19982;-55
2024/02/22 05:48:41;;;;;;;;;;;22.20;33.30;;;;;;5075274;28;20011;-55
2024/02/22 05:51:08;;;;;;;;;;;22.20;33.30;;;;;;5075067;28;19955;-58
2024/02/22 05:53:37;;;;;;;;;;;22.20;33.20;;;;;;5075474;28;20019;-54
2024/02/22 05:56:04;;;;;;;;;;;22.30;33.30;;;;;;5074386;28;19931;-55
2024/02/22 05:58:31;;;;;;;;;;;22.30;33.20;;;;;;5074755;28;19970;-55
2024/02/22 06:00:58;;;;;;;;;;;22.20;33.20;;;;;;5072597;28;20023;-54
2024/02/22 06:03:25;;;;;;;;;;;22.30;33.20;;;;;;5073172;28;19924;-56
2024/02/22 06:05:52;;;;;;;;;;;22.20;33.10;;;;;;5075284;28;20328;-56
2024/02/22 06:08:19;;;;;;;;;;;22.30;33.10;;;;;;5070501;28;19925;-57
2024/02/22 06:10:46;;;;;;;;;;;22.20;33.00;;;;;;5064646;28;20397;-55
2024/02/22 06:13:13;;;;;;;;;;;22.30;33.10;;;;;;5072002;28;19928;-55
2024/02/22 06:15:40;;;;;;;;;;;22.30;33.00;;;;;;5071839;28;19924;-57
2024/02/22 06:18:07;;;;;;;;;;;22.30;33.00;;;;;;5073422;28;19979;-57
2024/02/22 06:20:34;;;;;;;;;;;22.30;32.90;;;;;;5074688;28;20058;-59
2024/02/22 06:23:02;;;;;;;;;;;22.30;33.10;;;;;;5067177;28;19925;-59
2024/02/22 06:25:29;;;;;;;;;;;22.40;33.50;;;;;;5072561;28;20356;-59
2024/02/22 06:27:56;;;;;;;;;;;22.40;33.70;;;;;;5075568;28;19967;-59
2024/02/22 06:30:23;;;;;;;;;;;22.40;33.80;;;;;;5067284;28;20447;-61
2024/02/22 06:32:50;;;;;;;;;;;22.50;34.00;;;;;;5069116;28;20417;-62
2024/02/22 06:35:17;;;;;;;;;;;22.50;34.00;;;;;;5071393;28;20019;-62
2024/02/22 06:37:44;;;;;;;;;;;22.60;34.10;;;;;;5062695;28;19925;-62
2024/02/22 06:40:11;;;;;;;;;;;22.60;34.10;;;;;;5070528;28;19925;-62
2024/02/22 06:42:39;;;;;;;;;;;22.70;34.30;;;;;;5071342;28;19972;-62
2024/02/22 06:45:06;;;;;;;;;;;22.70;34.20;;;;;;5069651;28;19925;-60
2024/02/22 06:47:33;;;;;;;;;;;22.70;34.30;;;;;;5067966;28;19942;-61
2024/02/22 06:50:00;;;;;;;;;;;22.80;34.30;;;;;;5068856;28;19932;-61
2024/02/22 06:52:27;;;;;;;;;;;22.80;34.20;;;;;;5066298;28;19971;-61
2024/02/22 06:54:54;;;;;;;;;;;22.90;34.10;;;;;;5065806;28;19929;-61
2024/02/22 06:57:21;;;;;;;;;;;22.90;34.20;;;;;;5068525;28;19932;-61
2024/02/22 06:59:48;;;;;;;;;;;23.00;34.20;;;;;;5066621;28;19932;-62
2024/02/22 07:02:17;;;;;;;;;;;23.00;34.20;;;;;;5059665;28;19997;-61
2024/02/22 07:04:45;;;;;;;;;;;23.00;34.20;;;;;;5062390;28;19932;-61
2024/02/22 07:07:13;;;;;;;;;;;23.10;34.20;;;;;;5065668;28;19986;-58
2024/02/22 07:09:40;;;;;;;;;;;23.10;34.10;;;;;;5062087;28;19975;-59
2024/02/22 07:12:08;;;;;;;;;;;23.20;34.00;;;;;;5067209;28;19936;-60
2024/02/22 07:14:35;;;;;;;;;;;23.20;33.80;;;;;;5064232;28;20282;-60
2024/02/22 07:17:02;;;;;;;;;;;23.20;33.60;;;;;;5065432;28;19970;-60
2024/02/22 07:19:29;;;;;;;;;;;23.20;33.40;;;;;;5066843;28;19931;-61
2024/02/22 07:21:56;;;;;;;;;;;23.30;33.40;;;;;;5065613;28;19944;-61
2024/02/22 07:24:23;;;;;;;;;;;23.30;33.30;;;;;;5065488;28;20336;-61
2024/02/22 07:26:50;;;;;;;;;;;23.30;33.20;;;;;;5063148;28;19924;-60
2024/02/22 07:29:17;;;;;;;;;;;23.40;33.30;;;;;;5070710;28;19951;-59
2024/02/22 07:31:44;;;;;;;;;;;23.40;33.30;;;;;;5065345;28;20385;-58
2024/02/22 07:34:11;;;;;;;;;;;23.40;33.30;;;;;;5060793;28;19931;-59
2024/02/22 07:36:39;;;;;;;;;;;23.50;33.30;;;;;;5060662;28;19982;-58
2024/02/22 07:39:06;;;;;;;;;;;23.50;33.20;;;;;;5064824;28;19932;-59
2024/02/22 07:41:33;;;;;;;;;;;23.60;33.20;;;;;;5062932;28;19936;-59
2024/02/22 07:44:00;;;;;;;;;;;23.60;33.00;;;;;;5062495;28;19932;-58
2024/02/22 07:46:27;;;;;;;;;;;23.60;32.80;;;;;;5062788;28;19964;-59
2024/02/22 07:48:55;;;;;;;;;;;23.70;32.70;;;;;;5061604;28;19928;-58
2024/02/22 07:51:22;;;;;;;;;;;23.70;32.70;;;;;;5067088;28;19932;-57
2024/02/22 07:53:49;;;;;;;;;;;23.70;33.20;;;;;;5070462;28;19928;-58
2024/02/22 07:56:16;;;;;;;;;;;23.80;32.60;;;;;;5065231;28;21497;-60
2024/02/22 07:58:48;;;;;;;;;;;23.80;32.50;;;;;;5065025;28;19954;-57
2024/02/22 08:01:15;;;;;;;;;;;23.80;32.50;;;;;;5064507;28;19925;-59
2024/02/22 08:03:43;;;;;;;;;;;23.80;32.40;;;;;;5088640;28;19924;-54
2024/02/22 08:06:11;;;;;;;;;;;23.90;32.30;;;;;;5065178;28;19928;-60
2024/02/22 08:08:39;;;;;;;;;;;23.90;32.30;;;;;;5061390;28;19932;-59
2024/02/22 08:11:06;;;;;;;;;;;24.00;32.10;;;;;;5082510;28;20016;-58
2024/02/22 08:13:34;;;;;;;;;;;24.00;32.00;;;;;;5065648;28;19936;-58
2024/02/22 08:16:03;;;;;;;;;;;24.00;31.90;;;;;;5063396;28;19928;-59
2024/02/22 08:18:30;;;;;;;;;;;24.10;31.90;;;;;;5059595;28;19929;-59
2024/02/22 08:20:57;;;;;;;;;;;24.10;31.90;;;;;;5064856;28;19932;-59
2024/02/22 08:23:24;;;;;;;;;;;24.10;31.90;;;;;;5061198;28;20428;-59
2024/02/22 08:25:51;;;;;;;;;;;24.10;31.80;;;;;;5064198;28;20015;-59
2024/02/22 08:28:18;;;;;;;;;;;24.20;32.00;;;;;;5059934;28;19924;-60
2024/02/22 08:30:45;;;;;;;;;;;24.20;32.00;;;;;;5059239;28;19959;-59
2024/02/22 08:33:12;;;;;;;;;;;24.30;32.10;;;;;;5063334;28;19975;-61
2024/02/22 08:35:39;;;;;;;;;;;24.30;32.30;;;;;;5057025;28;19943;-59
2024/02/22 08:38:07;;;;;;;;;;;24.30;32.40;;;;;;5058135;28;19933;-59
2024/02/22 08:40:34;;;;;;;;;;;24.40;32.40;;;;;;5064294;28;20339;-57
2024/02/22 08:43:06;;;;;;;;;;;24.40;32.20;;;;;;5068355;28;19939;-57
2024/02/22 08:45:34;;;;;;;;;;;24.40;32.10;;;;;;5066385;28;20435;-56
2024/02/22 08:48:01;;;;;;;;;;;24.50;32.00;;;;;;5063921;28;19936;-58
2024/02/22 08:50:31;;;;;;;;;;;24.50;31.90;;;;;;5063648;28;19932;-57
2024/02/22 08:52:58;;;;;;;;;;;24.50;31.90;;;;;;5060780;28;19932;-58
2024/02/22 08:55:26;;;;;;;;;;;24.50;31.80;;;;;;5061399;28;19978;-56
2024/02/22 08:57:53;;;;;;;;;;;24.60;31.80;;;;;;5066562;28;19931;-59
2024/02/22 09:00:23;;;;;;;;;;;24.60;31.80;;;;;;5063009;28;19964;-57
2024/02/22 09:02:51;;;;;;;;;;;24.70;31.70;;;;;;5067758;28;20348;-59
2024/02/22 09:05:19;;;;;;;;;;;24.70;31.70;;;;;;5068047;28;20337;-57
2024/02/22 09:07:49;;;;;;;;;;;24.70;31.70;;;;;;5068767;28;19924;-59
2024/02/22 09:10:17;;;;;;;;;;;24.80;31.70;;;;;;5064549;28;20330;-59
2024/02/22 09:12:45;;;;;;;;;;;24.80;31.70;;;;;;5069331;28;19932;-58
2024/02/22 09:15:12;;;;;;;;;;;24.80;31.70;;;;;;5065691;28;19933;-59
2024/02/22 09:17:39;;;;;;;;;;;24.80;31.60;;;;;;5067060;28;20318;-59
2024/02/22 09:20:07;;;;;;;;;;;24.90;31.70;;;;;;5065903;28;20058;-58
2024/02/22 09:22:34;;;;;;;;;;;24.90;31.60;;;;;;5065449;28;19928;-58
2024/02/22 09:25:06;;;;;;;;;;;25.00;31.60;;;;;;5067092;28;20163;-60
2024/02/22 09:27:34;;;;;;;;;;;25.00;31.70;;;;;;5065417;28;21732;-57
2024/02/22 09:30:03;;;;;;;;;;;25.10;31.70;;;;;;5069116;28;19940;-59
2024/02/22 09:32:31;;;;;;;;;;;25.10;31.60;;;;;;5069985;28;20015;-56
2024/02/22 09:34:58;;;;;;;;;;;25.10;31.50;;;;;;5066171;28;20023;-60
2024/02/22 09:37:27;;;;;;;;;;;25.20;31.60;;;;;;5068228;28;19933;-57
2024/02/22 09:39:54;;;;;;;;;;;25.20;31.60;;;;;;5067692;28;19936;-57
2024/02/22 09:42:26;;;;;;;;;;;25.20;31.50;;;;;;5065686;28;20400;-58
2024/02/22 09:44:55;;;;;;;;;;;25.30;31.40;;;;;;5071381;28;19932;-60
2024/02/22 09:47:23;;;;;;;;;;;25.30;31.10;;;;;;5072218;28;20592;-59
2024/02/22 09:49:51;;;;;;;;;;;25.40;31.10;;;;;;5066362;28;19933;-60
2024/02/22 09:52:19;;;;;;;;;;;25.40;30.80;;;;;;5068210;28;20015;-59
2024/02/22 09:54:47;;;;;;;;;;;25.40;30.60;;;;;;5074379;28;19931;-61
2024/02/22 09:57:14;;;;;;;;;;;25.40;30.50;;;;;;5065214;28;19965;-59
2024/02/22 09:59:47;;;;;;;;;;;25.50;30.50;;;;;;5072633;28;21280;-57
2024/02/22 10:02:14;;;;;;;;;;;25.50;30.30;;;;;;5064591;28;19940;-58
2024/02/22 10:04:52;;;;;;;;;;;25.50;31.00;;;;;;5064121;28;19925;-56
2024/02/22 10:07:23;;;;;;;;;;;25.60;30.50;;;;;;5062081;28;19929;-58
2024/02/22 10:09:51;;;;;;;;;;;25.60;30.50;;;;;;5064511;28;20427;-60
2024/02/22 10:12:22;;;;;;;;;;;25.60;30.50;;;;;;5060796;28;20324;-60
2024/02/22 10:14:50;;;;;;;;;;;25.60;30.40;;;;;;5065148;28;19946;-58
2024/02/22 10:17:23;;;;;;;;;;;25.60;30.40;;;;;;5064803;28;19925;-57
2024/02/22 10:19:54;;;;;;;;;;;25.70;30.40;;;;;;5071109;28;19924;-56
2024/02/22 10:22:22;;;;;;;;;;;25.70;30.40;;;;;;5069666;28;19924;-57
2024/02/22 10:24:50;;;;;;;;;;;25.70;30.30;;;;;;5069304;28;20443;-56
2024/02/22 10:27:17;;;;;;;;;;;25.70;30.10;;;;;;5068697;28;19925;-58
2024/02/22 10:29:44;;;;;;;;;;;25.70;30.10;;;;;;5071136;28;20054;-58
2024/02/22 10:32:18;;;;;;;;;;;25.70;30.00;;;;;;5072684;28;19925;-62
2024/02/22 10:34:48;;;;;;;;;;;25.80;30.00;;;;;;5076366;28;20014;-63
2024/02/22 10:37:16;;;;;;;;;;;25.80;30.10;;;;;;5069566;28;20367;-63
2024/02/22 10:39:44;;;;;;;;;;;25.90;30.00;;;;;;5069974;28;19924;-60
2024/02/22 10:42:13;;;;;;;;;;;25.90;30.00;;;;;;5065342;28;19929;-61
2024/02/22 10:44:42;;;;;;;;;;;25.90;29.90;;;;;;5068025;28;20168;-61
2024/02/22 10:47:10;;;;;;;;;;;26.00;29.90;;;;;;5075746;28;19934;-60
2024/02/22 10:49:38;;;;;;;;;;;26.00;30.10;;;;;;5069339;28;19931;-62
2024/02/22 10:52:10;;;;;;;;;;;26.00;29.80;;;;;;5068063;28;19936;-61
2024/02/22 10:54:40;;;;;;;;;;;26.00;29.70;;;;;;5067953;28;19925;-61
2024/02/22 10:57:09;;;;;;;;;;;26.00;29.70;;;;;;5067606;28;19931;-61
2024/02/22 10:59:37;;;;;;;;;;;26.10;29.80;;;;;;5067773;28;19924;-61
2024/02/22 11:02:04;;;;;;;;;;;26.10;29.80;;;;;;5065845;28;19932;-62
2024/02/22 11:04:32;;;;;;;;;;;26.10;29.70;;;;;;5068235;28;19925;-58
2024/02/22 11:07:03;;;;;;;;;;;26.10;29.80;;;;;;5069181;28;19936;-62
2024/02/22 11:09:36;;;;;;;;;;;26.10;29.80;;;;;;5062437;28;20340;-60
2024/02/22 11:12:05;;;;;;;;;;;26.10;29.80;;;;;;5086655;28;19936;-60
2024/02/22 11:14:34;;;;;;;;;;;26.10;29.60;;;;;;5072162;28;19924;-60
2024/02/22 11:17:07;;;;;;;;;;;26.10;29.50;;;;;;5067612;28;19925;-61
2024/02/22 11:19:34;;;;;;;;;;;26.10;29.60;;;;;;5078909;28;19943;-59
2024/02/22 11:22:11;;;;;;;;;;;26.10;29.40;;;;;;5067932;28;19928;-60
2024/02/22 11:24:38;;;;;;;;;;;26.10;29.40;;;;;;5063653;28;20015;-58
2024/02/22 11:27:06;;;;;;;;;;;26.10;29.40;;;;;;5065060;28;19932;-58
2024/02/22 11:29:36;;;;;;;;;;;26.10;29.30;;;;;;5066688;28;21356;-55
2024/02/22 11:32:03;;;;;;;;;;;26.10;29.30;;;;;;5075386;28;19963;-61
2024/02/22 11:34:31;;;;;;;;;;;26.10;29.20;;;;;;5069910;28;20015;-57
2024/02/22 11:37:11;;;;;;;;;;;26.10;29.20;;;;;;5066488;28;19956;-59
2024/02/22 11:39:38;;;;;;;;;;;26.10;29.20;;;;;;5065244;28;20015;-55
2024/02/22 11:42:11;;;;;;;;;;;26.10;29.10;;;;;;5067968;28;19982;-56
2024/02/22 11:44:38;;;;;;;;;;;26.10;29.20;;;;;;5060957;28;19940;-60
2024/02/22 11:47:06;;;;;;;;;;;26.10;29.20;;;;;;5065747;28;20389;-60
2024/02/22 11:49:33;;;;;;;;;;;26.10;29.30;;;;;;5066728;28;20373;-60
2024/02/22 11:52:01;;;;;;;;;;;26.10;29.20;;;;;;5067808;28;19928;-56
2024/02/22 11:54:28;;;;;;;;;;;26.10;29.30;;;;;;5065681;28;19963;-61
2024/02/22 11:56:55;;;;;;;;;;;26.10;29.10;;;;;;5066859;28;20022;-58
2024/02/22 11:59:22;;;;;;;;;;;26.10;29.30;;;;;;5064568;28;19931;-58
2024/02/22 12:01:49;;;;;;;;;;;26.10;29.30;;;;;;5061215;28;20265;-59
2024/02/22 12:04:16;;;;;;;;;;;26.10;29.20;;;;;;5066329;28;19954;-58
2024/02/22 12:06:44;;;;;;;;;;;26.10;29.10;;;;;;5068387;28;19925;-55
2024/02/22 12:09:13;;;;;;;;;;;26.10;29.00;;;;;;5070077;28;20328;-59
2024/02/22 12:11:41;;;;;;;;;;;26.10;29.60;;;;;;5063444;28;19960;-57
2024/02/22 12:14:12;;;;;;;;;;;26.10;29.40;;;;;;5067536;28;19931;-57
2024/02/22 12:16:39;;;;;;;;;;;26.10;28.90;;;;;;5067063;28;19934;-57
2024/02/22 12:19:06;;;;;;;;;;;26.10;29.00;;;;;;5065612;28;19982;-55
2024/02/22 12:21:38;;;;;;;;;;;26.10;29.00;;;;;;5066508;28;20418;-56
2024/02/22 12:24:05;;;;;;;;;;;26.10;29.00;;;;;;5071484;28;20015;-60
2024/02/22 12:26:32;;;;;;;;;;;26.10;29.00;;;;;;5067623;28;19932;-60
2024/02/22 12:28:59;;;;;;;;;;;26.00;29.00;;;;;;5068927;28;20626;-60
2024/02/22 12:31:29;;;;;;;;;;;26.00;29.00;;;;;;5065243;28;19940;-60
2024/02/22 12:33:57;;;;;;;;;;;26.00;29.00;;;;;;5074773;28;19974;-57
2024/02/22 12:36:24;;;;;;;;;;;26.00;29.40;;;;;;5067310;28;20458;-60
2024/02/22 12:38:51;;;;;;;;;;;26.00;29.00;;;;;;5064726;28;19931;-59
2024/02/22 12:41:20;;;;;;;;;;;26.00;29.00;;;;;;5070105;28;20458;-60
2024/02/22 12:43:49;;;;;;;;;;;26.00;29.00;;;;;;5067220;28;19928;-58
2024/02/22 12:46:17;;;;;;;;;;;26.00;29.00;;;;;;5062399;28;19940;-58
2024/02/22 12:48:44;;;;;;;;;;;26.00;29.10;;;;;;5064530;28;19925;-58
2024/02/22 12:51:15;;;;;;;;;;;25.90;29.20;;;;;;5072567;28;20382;-58
2024/02/22 12:53:48;;;;;;;;;;;25.90;29.20;;;;;;5068544;28;20372;-57
2024/02/22 12:56:15;;;;;;;;;;;25.90;29.00;;;;;;5068048;28;19932;-57
2024/02/22 12:58:43;;;;;;;;;;;25.80;28.90;;;;;;5069560;28;19928;-57
2024/02/22 13:01:10;;;;;;;;;;;25.80;29.10;;;;;;5070030;28;19946;-58
2024/02/22 13:03:37;;;;;;;;;;;25.80;29.20;;;;;;5061269;28;19928;-59
2024/02/22 13:06:04;;;;;;;;;;;25.80;29.10;;;;;;5073408;28;20476;-55
2024/02/22 13:08:31;;;;;;;;;;;25.80;29.10;;;;;;5065909;28;19928;-57
2024/02/22 13:11:06;;;;;;;;;;;25.70;29.30;;;;;;5069646;28;19933;-59
2024/02/22 13:13:33;;;;;;;;;;;25.70;29.30;;;;;;5066200;28;20362;-58
2024/02/22 13:16:01;;;;;;;;;;;25.70;29.10;;;;;;5067143;28;19982;-59
2024/02/22 13:18:28;;;;;;;;;;;25.70;29.30;;;;;;5069327;28;19932;-59
2024/02/22 13:20:55;;;;;;;;;;;25.60;29.40;;;;;;5069787;28;19978;-57
2024/02/22 13:23:24;;;;;;;;;;;25.60;29.50;;;;;;5063068;28;19924;-57
2024/02/22 13:25:51;;;;;;;;;;;25.60;29.60;;;;;;5062459;28;19928;-57
2024/02/22 13:28:18;;;;;;;;;;;25.60;29.60;;;;;;5063625;28;19928;-59
2024/02/22 13:30:45;;;;;;;;;;;25.60;29.70;;;;;;5060708;28;19972;-59
2024/02/22 13:33:12;;;;;;;;;;;25.60;29.70;;;;;;5063066;28;19937;-59
2024/02/22 13:35:39;;;;;;;;;;;25.50;29.60;;;;;;5067322;28;20024;-58
2024/02/22 13:38:06;;;;;;;;;;;25.50;29.60;;;;;;5062614;28;19933;-58
2024/02/22 13:40:34;;;;;;;;;;;25.60;29.70;;;;;;5063786;28;21305;-56
2024/02/22 13:43:01;;;;;;;;;;;25.50;29.80;;;;;;5067322;28;19932;-60
2024/02/22 13:45:28;;;;;;;;;;;25.50;29.60;;;;;;5065642;28;20011;-60
2024/02/22 13:47:55;;;;;;;;;;;25.50;29.70;;;;;;5070325;28;20631;-59
2024/02/22 13:50:22;;;;;;;;;;;25.50;29.60;;;;;;5068752;28;19971;-58
2024/02/22 13:52:52;;;;;;;;;;;25.50;29.60;;;;;;5069510;28;19932;-60
2024/02/22 13:55:19;;;;;;;;;;;25.50;29.70;;;;;;5072444;28;19931;-61
2024/02/22 13:57:46;;;;;;;;;;;25.50;29.70;;;;;;5068636;28;20000;-58
2024/02/22 14:00:13;;;;;;;;;;;25.50;29.70;;;;;;5064871;28;19925;-59
2024/02/22 14:02:40;;;;;;;;;;;25.50;29.80;;;;;;5065558;28;19974;-60
2024/02/22 14:05:07;;;;;;;;;;;25.50;29.80;;;;;;5070876;28;19932;-59
2024/02/22 14:07:36;;;;;;;;;;;25.50;29.80;;;;;;5069988;28;19932;-60
2024/02/22 14:10:04;;;;;;;;;;;25.40;29.80;;;;;;5062018;28;19974;-59
2024/02/22 14:12:31;;;;;;;;;;;25.40;29.70;;;;;;5066710;28;19947;-55
2024/02/22 14:14:58;;;;;;;;;;;25.40;29.60;;;;;;5067725;28;19928;-57
2024/02/22 14:17:26;;;;;;;;;;;25.40;29.50;;;;;;5059847;28;20414;-59
2024/02/22 14:19:53;;;;;;;;;;;25.40;29.40;;;;;;5065626;28;19925;-58